sensor_id;sensor_type;location;lat;lon;timestamp;pressure;altitude;pressure_sealevel;temperature;humidity
60427;BME280;46274;47.168;27.604;2023-06-26T00:04:29;99604.75;;;17.04;81.05
60427;BME280;46274;47.168;27.604;2023-06-26T00:11:04;99614.16;;;17.08;80.63
60427;BME280;46274;47.168;27.604;2023-06-26T00:17:58;99609.19;;;17.47;78.13
60427;BME280;46274;47.168;27.604;2023-06-26T00:24:31;99606.19;;;17.37;78.64
60427;BME280;46274;47.168;27.604;2023-06-26T00:31:02;99598.06;;;17.30;78.67
60427;BME280;46274;47.168;27.604;2023-06-26T00:37:17;99310.94;;;15.04;80.82
60427;BME280;46274;47.168;27.604;2023-06-26T00:43:44;99520.63;;;16.26;81.59
60427;BME280;46274;47.168;27.604;2023-06-26T00:49:54;99493.72;;;16.60;78.55
60427;BME280;46274;47.168;27.604;2023-06-26T00:56:35;99592.84;;;17.10;79.02
60427;BME280;46274;47.168;27.604;2023-06-26T01:02:45;99428.47;;;15.96;79.61
60427;BME280;46274;47.168;27.604;2023-06-26T01:09:11;99343.66;;;15.47;79.28
60427;BME280;46274;47.168;27.604;2023-06-26T01:15:31;99339.56;;;15.38;79.34
60427;BME280;46274;47.168;27.604;2023-06-26T01:21:46;99328.25;;;15.35;79.32
60427;BME280;46274;47.168;27.604;2023-06-26T01:27:52;99363.75;;;15.53;79.56
60427;BME280;46274;47.168;27.604;2023-06-26T01:33:58;99485.84;;;16.33;78.87
60427;BME280;46274;47.168;27.604;2023-06-26T01:40:11;99536.44;;;16.79;78.34
60427;BME280;46274;47.168;27.604;2023-06-26T01:53:10;99578.13;;;16.74;78.45
60427;BME280;46274;47.168;27.604;2023-06-26T01:59:33;99427.50;;;15.65;78.92
60427;BME280;46274;47.168;27.604;2023-06-26T02:05:38;99511.06;;;16.35;77.64
60427;BME280;46274;47.168;27.604;2023-06-26T02:11:51;99331.28;;;15.26;77.84
60427;BME280;46274;47.168;27.604;2023-06-26T02:18:07;99251.19;;;14.77;77.96
60427;BME280;46274;47.168;27.604;2023-06-26T02:24:25;99576.16;;;16.63;78.40
60427;BME280;46274;47.168;27.604;2023-06-26T02:30:37;99492.84;;;16.29;77.54
60427;BME280;46274;47.168;27.604;2023-06-26T02:37:22;99567.66;;;16.71;78.33
60427;BME280;46274;47.168;27.604;2023-06-26T02:43:51;99569.09;;;16.74;78.34
60427;BME280;46274;47.168;27.604;2023-06-26T02:49:58;99574.78;;;16.72;78.78
60427;BME280;46274;47.168;27.604;2023-06-26T02:56:19;99569.63;;;16.83;78.09
60427;BME280;46274;47.168;27.604;2023-06-26T03:02:32;99547.13;;;16.25;80.36
60427;BME280;46274;47.168;27.604;2023-06-26T03:08:44;99550.56;;;16.57;79.11
60427;BME280;46274;47.168;27.604;2023-06-26T03:22:16;99493.22;;;16.32;78.92
60427;BME280;46274;47.168;27.604;2023-06-26T03:29:07;99332.22;;;15.57;78.24
60427;BME280;46274;47.168;27.604;2023-06-26T03:35:36;99408.81;;;16.06;78.50
60427;BME280;46274;47.168;27.604;2023-06-26T03:41:41;99317.28;;;15.41;78.71
60427;BME280;46274;47.168;27.604;2023-06-26T04:02:03;99412.03;;;16.93;76.45
60427;BME280;46274;47.168;27.604;2023-06-26T04:08:30;99268.84;;;16.46;75.59
60427;BME280;46274;47.168;27.604;2023-06-26T04:14:55;99570.69;;;18.78;73.02
60427;BME280;46274;47.168;27.604;2023-06-26T04:21:21;99570.09;;;19.16;71.22
60427;BME280;46274;47.168;27.604;2023-06-26T04:42:34;99573.78;;;20.18;69.30
60427;BME280;46274;47.168;27.604;2023-06-26T04:48:49;99547.38;;;20.34;67.92
60427;BME280;46274;47.168;27.604;2023-06-26T05:03:20;99370.25;;;19.57;67.41
60427;BME280;46274;47.168;27.604;2023-06-26T05:09:56;99324.00;;;19.49;66.43
60427;BME280;46274;47.168;27.604;2023-06-26T05:17:11;99348.28;;;19.96;66.20
60427;BME280;46274;47.168;27.604;2023-06-26T05:31:59;99584.84;;;21.77;62.96
60427;BME280;46274;47.168;27.604;2023-06-26T05:53:24;99348.63;;;20.76;60.96
60427;BME280;46274;47.168;27.604;2023-06-26T06:22:10;99432.16;;;21.89;57.56
60427;BME280;46274;47.168;27.604;2023-06-26T06:36:51;99582.97;;;23.05;57.10
60427;BME280;46274;47.168;27.604;2023-06-26T06:43:31;99448.84;;;22.14;58.19
60427;BME280;46274;47.168;27.604;2023-06-26T07:36:17;99585.31;;;24.36;54.00
60427;BME280;46274;47.168;27.604;2023-06-26T07:43:27;99586.31;;;24.92;52.62
60427;BME280;46274;47.168;27.604;2023-06-26T07:50:12;99578.59;;;24.78;51.74
60427;BME280;46274;47.168;27.604;2023-06-26T08:03:38;99575.00;;;25.43;52.42
60427;BME280;46274;47.168;27.604;2023-06-26T08:10:12;99579.66;;;24.88;52.06
60427;BME280;46274;47.168;27.604;2023-06-26T08:31:17;99481.75;;;24.43;53.34
60427;BME280;46274;47.168;27.604;2023-06-26T08:37:46;99584.47;;;25.32;51.05
60427;BME280;46274;47.168;27.604;2023-06-26T08:43:54;99535.16;;;24.64;50.97
60427;BME280;46274;47.168;27.604;2023-06-26T08:50:18;99379.63;;;24.31;50.38
60427;BME280;46274;47.168;27.604;2023-06-26T08:56:44;99570.81;;;25.85;52.36
60427;BME280;46274;47.168;27.604;2023-06-26T09:09:18;99443.56;;;24.45;49.84
60427;BME280;46274;47.168;27.604;2023-06-26T09:15:43;99544.44;;;25.82;48.79
60427;BME280;46274;47.168;27.604;2023-06-26T09:21:50;99543.34;;;25.44;49.12
60427;BME280;46274;47.168;27.604;2023-06-26T09:28:11;99546.44;;;25.37;47.00
60427;BME280;46274;47.168;27.604;2023-06-26T09:34:32;99540.72;;;26.02;46.39
60427;BME280;46274;47.168;27.604;2023-06-26T09:40:37;99522.47;;;26.20;47.90
60427;BME280;46274;47.168;27.604;2023-06-26T09:46:49;99531.00;;;26.29;45.52
60427;BME280;46274;47.168;27.604;2023-06-26T09:53:12;99576.78;;;26.02;46.05
60427;BME280;46274;47.168;27.604;2023-06-26T09:59:33;99448.97;;;26.13;47.27
60427;BME280;46274;47.168;27.604;2023-06-26T10:05:40;99560.38;;;26.06;46.91
60427;BME280;46274;47.168;27.604;2023-06-26T10:18:07;99557.06;;;26.04;47.17
60427;BME280;46274;47.168;27.604;2023-06-26T10:24:33;99555.44;;;26.80;46.97
60427;BME280;46274;47.168;27.604;2023-06-26T10:31:00;99344.91;;;25.33;46.11
60427;BME280;46274;47.168;27.604;2023-06-26T10:37:20;99464.56;;;26.08;46.83
60427;BME280;46274;47.168;27.604;2023-06-26T10:43:31;99465.56;;;26.66;45.97
60427;BME280;46274;47.168;27.604;2023-06-26T10:49:47;99420.50;;;25.43;42.13
60427;BME280;46274;47.168;27.604;2023-06-26T11:03:24;99341.53;;;25.89;44.23
60427;BME280;46274;47.168;27.604;2023-06-26T11:09:56;99524.16;;;27.88;43.15
60427;BME280;46274;47.168;27.604;2023-06-26T11:16:14;99525.13;;;26.60;41.19
60427;BME280;46274;47.168;27.604;2023-06-26T11:22:43;99532.88;;;27.06;41.41
60427;BME280;46274;47.168;27.604;2023-06-26T11:28:58;99525.78;;;26.94;44.29
60427;BME280;46274;47.168;27.604;2023-06-26T11:42:32;99496.66;;;27.49;40.84
60427;BME280;46274;47.168;27.604;2023-06-26T11:48:41;99457.75;;;27.62;39.95
60427;BME280;46274;47.168;27.604;2023-06-26T11:54:54;99513.31;;;27.87;40.66
60427;BME280;46274;47.168;27.604;2023-06-26T12:01:18;99361.31;;;26.06;39.24
60427;BME280;46274;47.168;27.604;2023-06-26T12:07:21;99514.25;;;27.25;37.75
60427;BME280;46274;47.168;27.604;2023-06-26T12:13:32;99516.56;;;28.21;37.65
60427;BME280;46274;47.168;27.604;2023-06-26T12:19:45;99343.84;;;26.68;37.57
60427;BME280;46274;47.168;27.604;2023-06-26T12:25:56;99432.56;;;27.54;36.88
60427;BME280;46274;47.168;27.604;2023-06-26T12:32:11;99465.81;;;27.07;37.57
60427;BME280;46274;47.168;27.604;2023-06-26T12:38:16;99509.44;;;27.50;37.41
60427;BME280;46274;47.168;27.604;2023-06-26T12:44:26;99285.00;;;26.80;38.93
60427;BME280;46274;47.168;27.604;2023-06-26T12:50:37;99307.31;;;26.93;35.82
60427;BME280;46274;47.168;27.604;2023-06-26T12:56:39;99421.53;;;27.49;36.88
60427;BME280;46274;47.168;27.604;2023-06-26T13:02:42;99410.66;;;27.66;37.10
60427;BME280;46274;47.168;27.604;2023-06-26T13:08:52;99307.16;;;26.28;36.81
60427;BME280;46274;47.168;27.604;2023-06-26T13:14:59;99492.91;;;27.72;36.16
60427;BME280;46274;47.168;27.604;2023-06-26T13:21:04;99368.91;;;27.66;36.83
60427;BME280;46274;47.168;27.604;2023-06-26T13:27:06;99473.34;;;27.77;35.60
60427;BME280;46274;47.168;27.604;2023-06-26T13:33:09;99486.91;;;27.32;37.02
60427;BME280;46274;47.168;27.604;2023-06-26T13:39:12;99451.00;;;27.50;36.53
60427;BME280;46274;47.168;27.604;2023-06-26T13:45:16;99415.03;;;27.53;36.23
60427;BME280;46274;47.168;27.604;2023-06-26T13:51:51;99498.38;;;27.77;34.57
60427;BME280;46274;47.168;27.604;2023-06-26T13:57:56;99480.25;;;27.80;35.25
60427;BME280;46274;47.168;27.604;2023-06-26T14:04:09;99479.38;;;27.33;36.61
60427;BME280;46274;47.168;27.604;2023-06-26T14:10:14;99476.06;;;27.82;36.77
60427;BME280;46274;47.168;27.604;2023-06-26T14:16:28;99480.22;;;27.66;37.20
60427;BME280;46274;47.168;27.604;2023-06-26T14:22:43;99433.19;;;27.51;37.71
60427;BME280;46274;47.168;27.604;2023-06-26T14:28:51;99471.41;;;27.78;36.25
60427;BME280;46274;47.168;27.604;2023-06-26T14:35:15;99411.81;;;26.94;34.12
60427;BME280;46274;47.168;27.604;2023-06-26T14:41:21;99347.09;;;25.84;35.47
60427;BME280;46274;47.168;27.604;2023-06-26T14:48:10;99265.66;;;25.75;33.28
60427;BME280;46274;47.168;27.604;2023-06-26T14:54:22;99405.72;;;26.92;35.57
60427;BME280;46274;47.168;27.604;2023-06-26T15:00:39;99347.66;;;26.53;36.50
60427;BME280;46274;47.168;27.604;2023-06-26T15:06:56;99369.53;;;26.60;35.06
60427;BME280;46274;47.168;27.604;2023-06-26T15:13:01;99441.78;;;26.79;35.16
60427;BME280;46274;47.168;27.604;2023-06-26T15:19:12;99280.81;;;25.82;34.82
60427;BME280;46274;47.168;27.604;2023-06-26T15:25:20;99443.38;;;27.23;36.41
60427;BME280;46274;47.168;27.604;2023-06-26T15:31:31;99407.59;;;26.59;34.61
60427;BME280;46274;47.168;27.604;2023-06-26T15:38:07;99445.16;;;26.94;35.17
60427;BME280;46274;47.168;27.604;2023-06-26T15:44:24;99367.53;;;26.41;35.95
60427;BME280;46274;47.168;27.604;2023-06-26T15:50:35;99349.16;;;26.02;35.60
60427;BME280;46274;47.168;27.604;2023-06-26T15:56:45;99323.41;;;25.97;36.50
60427;BME280;46274;47.168;27.604;2023-06-26T16:03:01;99304.41;;;25.85;36.74
60427;BME280;46274;47.168;27.604;2023-06-26T16:09:13;99352.69;;;26.08;37.01
60427;BME280;46274;47.168;27.604;2023-06-26T16:16:00;99374.66;;;26.04;37.35
60427;BME280;46274;47.168;27.604;2023-06-26T16:23:23;99220.31;;;25.12;37.29
60427;BME280;46274;47.168;27.604;2023-06-26T16:30:16;99205.41;;;24.79;37.05
60427;BME280;46274;47.168;27.604;2023-06-26T16:36:24;99264.66;;;25.12;37.40
60427;BME280;46274;47.168;27.604;2023-06-26T16:42:41;99449.22;;;26.16;37.70
60427;BME280;46274;47.168;27.604;2023-06-26T16:48:51;99414.28;;;25.57;36.13
60427;BME280;46274;47.168;27.604;2023-06-26T16:55:12;99394.13;;;25.46;36.50
60427;BME280;46274;47.168;27.604;2023-06-26T17:01:24;99466.56;;;25.68;37.10
60427;BME280;46274;47.168;27.604;2023-06-26T17:07:40;99464.47;;;25.55;37.88
60427;BME280;46274;47.168;27.604;2023-06-26T17:14:03;99392.22;;;25.07;38.52
60427;BME280;46274;47.168;27.604;2023-06-26T17:20:41;99263.50;;;24.05;39.22
60427;BME280;46274;47.168;27.604;2023-06-26T17:26:49;99395.78;;;24.73;39.92
60427;BME280;46274;47.168;27.604;2023-06-26T17:33:08;99436.94;;;24.90;40.90
60427;BME280;46274;47.168;27.604;2023-06-26T17:39:24;99344.84;;;24.14;41.33
60427;BME280;46274;47.168;27.604;2023-06-26T17:45:35;99475.56;;;24.71;42.65
60427;BME280;46274;47.168;27.604;2023-06-26T17:52:08;99486.97;;;24.54;43.08
60427;BME280;46274;47.168;27.604;2023-06-26T17:58:11;99435.38;;;23.99;44.37
60427;BME280;46274;47.168;27.604;2023-06-26T18:04:14;99437.63;;;23.71;45.57
60427;BME280;46274;47.168;27.604;2023-06-26T18:10:17;99366.28;;;22.91;45.65
60427;BME280;46274;47.168;27.604;2023-06-26T18:16:32;99500.09;;;23.21;46.31
60427;BME280;46274;47.168;27.604;2023-06-26T18:22:41;99492.19;;;22.77;46.94
60427;BME280;46274;47.168;27.604;2023-06-26T18:28:53;99473.00;;;22.34;47.62
60427;BME280;46274;47.168;27.604;2023-06-26T18:34:59;99366.72;;;21.69;47.31
60427;BME280;46274;47.168;27.604;2023-06-26T18:41:07;99521.47;;;22.73;47.88
60427;BME280;46274;47.168;27.604;2023-06-26T18:47:10;99535.53;;;22.18;48.43
60427;BME280;46274;47.168;27.604;2023-06-26T18:53:16;99532.09;;;22.01;48.35
60427;BME280;46274;47.168;27.604;2023-06-26T18:59:18;99434.75;;;21.63;47.80
60427;BME280;46274;47.168;27.604;2023-06-26T19:05:21;99504.94;;;20.96;49.69
60427;BME280;46274;47.168;27.604;2023-06-26T19:11:25;99531.31;;;21.73;49.08
60427;BME280;46274;47.168;27.604;2023-06-26T19:17:28;99518.09;;;21.16;49.98
60427;BME280;46274;47.168;27.604;2023-06-26T19:23:30;99505.41;;;20.66;51.06
60427;BME280;46274;47.168;27.604;2023-06-26T19:29:36;99529.84;;;20.62;51.68
60427;BME280;46274;47.168;27.604;2023-06-26T19:35:37;99494.59;;;20.81;50.83
60427;BME280;46274;47.168;27.604;2023-06-26T19:41:41;99532.00;;;21.31;50.77
60427;BME280;46274;47.168;27.604;2023-06-26T19:47:45;99546.81;;;21.47;50.56
60427;BME280;46274;47.168;27.604;2023-06-26T19:53:48;99433.00;;;20.43;51.60
60427;BME280;46274;47.168;27.604;2023-06-26T19:59:55;99463.03;;;20.67;51.57
60427;BME280;46274;47.168;27.604;2023-06-26T20:05:59;99453.22;;;20.76;51.55
60427;BME280;46274;47.168;27.604;2023-06-26T20:12:04;99485.28;;;20.87;52.06
60427;BME280;46274;47.168;27.604;2023-06-26T20:18:08;99504.50;;;20.82;53.17
60427;BME280;46274;47.168;27.604;2023-06-26T20:24:11;99534.97;;;20.98;53.42
60427;BME280;46274;47.168;27.604;2023-06-26T20:30:13;99540.34;;;21.09;52.66
60427;BME280;46274;47.168;27.604;2023-06-26T20:36:20;99541.19;;;20.66;53.91
60427;BME280;46274;47.168;27.604;2023-06-26T20:42:24;99552.47;;;20.86;53.89
60427;BME280;46274;47.168;27.604;2023-06-26T20:48:26;99542.09;;;20.72;56.55
60427;BME280;46274;47.168;27.604;2023-06-26T20:54:28;99361.50;;;18.59;58.71
60427;BME280;46274;47.168;27.604;2023-06-26T21:00:33;99503.16;;;19.85;58.02
60427;BME280;46274;47.168;27.604;2023-06-26T21:06:44;99543.72;;;20.51;56.88
60427;BME280;46274;47.168;27.604;2023-06-26T21:12:48;99541.63;;;20.19;58.82
60427;BME280;46274;47.168;27.604;2023-06-26T21:18:52;99532.81;;;20.17;58.44
60427;BME280;46274;47.168;27.604;2023-06-26T21:25:01;99387.84;;;17.56;64.25
60427;BME280;46274;47.168;27.604;2023-06-26T21:31:07;99507.78;;;17.77;65.35
60427;BME280;46274;47.168;27.604;2023-06-26T21:37:09;99307.59;;;16.43;64.77
60427;BME280;46274;47.168;27.604;2023-06-26T21:43:11;99534.56;;;17.75;64.41
60427;BME280;46274;47.168;27.604;2023-06-26T21:49:14;99560.56;;;19.07;60.95
60427;BME280;46274;47.168;27.604;2023-06-26T21:55:16;99569.00;;;19.17;61.54
60427;BME280;46274;47.168;27.604;2023-06-26T22:01:23;99555.47;;;18.35;63.12
60427;BME280;46274;47.168;27.604;2023-06-26T22:07:26;99548.13;;;18.88;61.41
60427;BME280;46274;47.168;27.604;2023-06-26T22:13:28;99513.81;;;18.62;60.77
60427;BME280;46274;47.168;27.604;2023-06-26T22:19:32;99464.91;;;18.06;62.38
60427;BME280;46274;47.168;27.604;2023-06-26T22:25:34;99510.63;;;18.41;61.38
60427;BME280;46274;47.168;27.604;2023-06-26T22:31:37;99532.19;;;18.61;62.07
60427;BME280;46274;47.168;27.604;2023-06-26T22:37:44;99549.59;;;18.55;62.53
60427;BME280;46274;47.168;27.604;2023-06-26T22:43:50;99526.38;;;18.46;62.58
60427;BME280;46274;47.168;27.604;2023-06-26T22:49:53;99539.97;;;18.29;62.96
60427;BME280;46274;47.168;27.604;2023-06-26T22:55:56;99511.63;;;18.12;62.65
60427;BME280;46274;47.168;27.604;2023-06-26T23:01:58;99526.72;;;18.38;61.37
60427;BME280;46274;47.168;27.604;2023-06-26T23:08:01;99535.38;;;17.40;63.94
60427;BME280;46274;47.168;27.604;2023-06-26T23:14:04;99511.78;;;16.97;65.46
60427;BME280;46274;47.168;27.604;2023-06-26T23:20:09;99521.28;;;18.02;62.19
60427;BME280;46274;47.168;27.604;2023-06-26T23:26:14;99507.09;;;17.82;61.85
60427;BME280;46274;47.168;27.604;2023-06-26T23:32:16;99510.16;;;16.23;67.70
60427;BME280;46274;47.168;27.604;2023-06-26T23:38:20;99485.44;;;16.66;65.70
60427;BME280;46274;47.168;27.604;2023-06-26T23:44:23;99502.78;;;16.23;67.91
60427;BME280;46274;47.168;27.604;2023-06-26T23:50:31;99466.28;;;16.66;65.54
60427;BME280;46274;47.168;27.604;2023-06-26T23:56:37;99517.22;;;15.37;71.45
